createdAt,value
2018-10-02T00:01:07.274Z,6.30
2018-10-02T00:03:35.526Z,5.87
2018-10-02T00:06:04.120Z,7.53
2018-10-02T00:08:32.408Z,7.53
2018-10-02T00:11:06.019Z,7.77
2018-10-02T00:13:40.037Z,8.03
2018-10-02T00:16:08.454Z,8.97
2018-10-02T00:18:36.701Z,7.93
2018-10-02T00:21:04.993Z,9.30
2018-10-02T00:23:34.355Z,8.40
2018-10-02T00:26:02.607Z,9.67
2018-10-02T00:28:30.862Z,9.60
2018-10-02T00:30:59.126Z,8.90
2018-10-02T00:33:27.385Z,7.70
2018-10-02T00:35:55.661Z,9.37
2018-10-02T00:38:23.931Z,8.23
2018-10-02T00:40:52.173Z,8.57
2018-10-02T00:43:20.426Z,9.33
2018-10-02T00:45:48.688Z,8.80
2018-10-02T00:48:16.956Z,8.93
2018-10-02T00:50:45.557Z,9.00
2018-10-02T00:53:13.809Z,8.23
2018-10-02T00:55:42.086Z,8.77
2018-10-02T00:58:10.382Z,8.67
2018-10-02T01:00:38.649Z,7.57
2018-10-02T01:03:07.328Z,8.20
2018-10-02T01:05:35.705Z,9.70
2018-10-02T01:08:03.973Z,9.33
2018-10-02T01:10:32.223Z,9.13
2018-10-02T01:13:00.532Z,8.63
2018-10-02T01:15:29.223Z,9.30
2018-10-02T01:17:57.611Z,9.50
2018-10-02T01:20:25.914Z,8.90
2018-10-02T01:22:54.181Z,9.53
2018-10-02T01:25:22.487Z,9.13
2018-10-02T01:27:50.751Z,9.40
2018-10-02T01:30:19.002Z,11.43
2018-10-02T01:32:47.782Z,10.27
2018-10-02T01:35:17.106Z,10.87
2018-10-02T01:37:45.413Z,11.13
2018-10-02T01:40:13.829Z,9.97
2018-10-02T01:42:42.742Z,9.40
2018-10-02T01:45:10.997Z,8.83
2018-10-02T01:47:39.236Z,10.47
2018-10-02T01:50:07.718Z,10.13
2018-10-02T01:52:35.988Z,10.27
2018-10-02T01:55:04.241Z,9.80
2018-10-02T01:57:32.655Z,10.27
2018-10-02T02:00:00.937Z,9.70
2018-10-02T02:02:29.237Z,9.60
2018-10-02T02:04:57.477Z,9.23
2018-10-02T02:07:25.733Z,9.50
2018-10-02T02:09:53.955Z,9.57
2018-10-02T02:12:22.345Z,11.17
2018-10-02T02:14:50.605Z,10.57
2018-10-02T02:17:18.852Z,11.00
2018-10-02T02:19:54.433Z,9.77
2018-10-02T02:22:22.701Z,8.30
2018-10-02T02:24:51.893Z,9.07
2018-10-02T02:27:20.158Z,10.00
2018-10-02T02:29:48.581Z,7.83
2018-10-02T02:32:16.857Z,8.90
2018-10-02T02:34:45.501Z,7.70
2018-10-02T02:37:13.793Z,7.57
2018-10-02T02:39:42.149Z,8.23
2018-10-02T02:42:10.421Z,7.47
2018-10-02T02:44:38.702Z,6.90
2018-10-02T02:47:12.274Z,6.90
2018-10-02T02:49:46.278Z,7.57
2018-10-02T02:52:15.539Z,6.23
2018-10-02T02:54:43.770Z,7.10
2018-10-02T02:57:12.017Z,6.60
2018-10-02T02:59:40.286Z,7.13
2018-10-02T03:02:08.588Z,7.07
2018-10-02T03:04:37.081Z,6.80
2018-10-02T03:07:05.299Z,7.03
2018-10-02T03:09:33.569Z,7.07
2018-10-02T03:12:01.869Z,8.73
2018-10-02T03:14:30.160Z,8.93
2018-10-02T03:16:58.590Z,8.30
2018-10-02T03:19:26.834Z,8.17
2018-10-02T03:21:55.475Z,8.97
2018-10-02T03:24:23.691Z,6.90
2018-10-02T03:26:51.941Z,7.87
2018-10-02T03:29:20.233Z,9.37
2018-10-02T03:31:48.510Z,6.83
2018-10-02T03:34:18.526Z,6.33
2018-10-02T03:36:46.786Z,6.50
2018-10-02T03:39:15.069Z,7.60
2018-10-02T03:41:43.339Z,7.03
2018-10-02T03:44:11.568Z,6.90
2018-10-02T03:46:41.599Z,6.37
2018-10-02T03:49:09.832Z,6.80
2018-10-02T03:51:38.126Z,5.33
2018-10-02T03:54:06.501Z,6.67
2018-10-02T03:56:34.782Z,6.07
2018-10-02T03:59:03.309Z,6.27
2018-10-02T04:01:31.949Z,6.17
2018-10-02T04:04:00.233Z,6.23
2018-10-02T04:06:28.488Z,6.70
2018-10-02T04:08:56.776Z,4.73
2018-10-02T04:11:25.050Z,4.73
2018-10-02T04:13:53.334Z,6.63
2018-10-02T04:16:21.646Z,7.73
2018-10-02T04:18:49.896Z,6.80
2018-10-02T04:21:37.821Z,7.73
2018-10-02T04:24:07.071Z,7.53
2018-10-02T04:26:36.290Z,6.43
2018-10-02T04:29:05.182Z,7.47
2018-10-02T04:31:35.160Z,6.07
2018-10-02T04:34:06.623Z,7.33
2018-10-02T04:36:34.856Z,8.00
2018-10-02T04:39:04.422Z,7.03
2018-10-02T04:41:33.249Z,5.53
2018-10-02T04:44:01.481Z,7.17
2018-10-02T04:46:29.737Z,7.27
2018-10-02T04:48:58.202Z,6.00
2018-10-02T04:51:26.491Z,7.07
2018-10-02T04:53:54.774Z,7.07
2018-10-02T04:56:23.197Z,6.70
2018-10-02T04:58:51.693Z,7.00
2018-10-02T05:01:20.036Z,8.23
2018-10-02T05:03:48.591Z,6.60
2018-10-02T05:06:16.954Z,5.23
2018-10-02T05:08:45.326Z,5.37
2018-10-02T05:11:13.569Z,5.33
2018-10-02T05:13:41.854Z,4.97
2018-10-02T05:16:10.226Z,5.57
2018-10-02T05:18:38.766Z,5.30
2018-10-02T05:21:07.433Z,4.90
2018-10-02T05:23:35.882Z,5.23
2018-10-02T05:26:04.279Z,4.27
2018-10-02T05:28:32.529Z,4.77
2018-10-02T05:31:00.862Z,4.93
2018-10-02T05:33:29.268Z,5.60
2018-10-02T05:35:57.589Z,5.03
2018-10-02T05:38:25.862Z,4.23
2018-10-02T05:40:54.805Z,4.60
2018-10-02T05:43:23.138Z,4.47
2018-10-02T05:45:51.597Z,4.43
2018-10-02T05:48:19.880Z,4.40
2018-10-02T05:50:48.168Z,4.77
2018-10-02T05:53:16.901Z,5.53
2018-10-02T05:55:45.214Z,5.43
2018-10-02T05:58:13.510Z,4.57
2018-10-02T06:00:41.842Z,5.13
2018-10-02T06:03:10.204Z,4.83
2018-10-02T06:05:38.493Z,5.20
2018-10-02T06:08:06.774Z,6.57
2018-10-02T06:10:35.151Z,5.50
2018-10-02T06:13:03.496Z,5.80
2018-10-02T06:15:31.751Z,6.83
2018-10-02T06:18:00.085Z,6.70
2018-10-02T06:20:28.312Z,6.73
2018-10-02T06:22:56.661Z,6.90
2018-10-02T06:25:24.982Z,8.03
2018-10-02T06:27:53.238Z,6.43
2018-10-02T06:30:21.592Z,9.37
2018-10-02T06:32:49.960Z,7.20
2018-10-02T06:35:18.102Z,6.53
2018-10-02T06:37:46.349Z,8.73
2018-10-02T06:40:14.658Z,8.13
2018-10-02T06:42:42.901Z,7.97
2018-10-02T06:45:11.327Z,8.10
2018-10-02T06:47:39.578Z,8.37
2018-10-02T06:50:07.816Z,6.70
2018-10-02T06:52:36.691Z,6.03
2018-10-02T06:55:04.850Z,8.17
2018-10-02T06:57:33.103Z,8.10
2018-10-02T07:00:01.387Z,7.63
2018-10-02T07:02:30.069Z,6.00
2018-10-02T07:04:58.301Z,8.17
2018-10-02T07:07:26.823Z,8.53
2018-10-02T07:09:55.085Z,6.53
2018-10-02T07:12:23.379Z,10.10
2018-10-02T07:14:51.664Z,8.97
2018-10-02T07:17:19.949Z,7.17
2018-10-02T07:19:49.181Z,7.57
2018-10-02T07:22:17.512Z,7.33
2018-10-02T07:24:45.827Z,6.47
2018-10-02T07:27:14.305Z,7.53
2018-10-02T07:29:42.429Z,6.57
2018-10-02T07:32:10.829Z,7.43
2018-10-02T07:34:39.114Z,7.73
2018-10-02T07:37:07.574Z,5.77
2018-10-02T07:39:35.952Z,5.60
2018-10-02T07:42:04.300Z,5.50
2018-10-02T07:44:32.940Z,5.30
2018-10-02T07:47:01.186Z,7.40
2018-10-02T07:49:29.446Z,6.27
2018-10-02T07:51:57.690Z,5.23
2018-10-02T07:54:25.961Z,6.47
2018-10-02T07:56:54.233Z,7.23
2018-10-02T07:59:22.495Z,5.60
2018-10-02T08:01:50.777Z,7.73
2018-10-02T08:04:19.238Z,7.47
2018-10-02T08:06:47.850Z,8.73
2018-10-02T08:09:16.154Z,9.47
2018-10-02T08:11:44.453Z,9.37
2018-10-02T08:14:12.709Z,7.80
2018-10-02T08:16:40.968Z,8.30
2018-10-02T08:19:09.473Z,10.73
2018-10-02T08:21:37.725Z,10.50
2018-10-02T08:24:06.108Z,7.63
2018-10-02T08:26:34.367Z,11.50
2018-10-02T08:29:02.633Z,7.57
2018-10-02T08:31:30.942Z,8.93
2018-10-02T08:33:59.217Z,6.77
2018-10-02T08:36:30.488Z,5.90
2018-10-02T08:38:59.017Z,6.90
2018-10-02T08:41:27.257Z,7.83
2018-10-02T08:43:56.050Z,6.00
2018-10-02T08:46:24.346Z,8.00
2018-10-02T08:48:52.608Z,5.90
2018-10-02T08:51:20.861Z,10.67
2018-10-02T08:53:50.271Z,11.43
2018-10-02T08:56:18.417Z,6.07
2018-10-02T08:58:46.668Z,7.17
2018-10-02T09:01:15.041Z,8.10
2018-10-02T09:03:43.300Z,7.80
2018-10-02T09:06:11.566Z,6.30
2018-10-02T09:08:39.915Z,6.33
2018-10-02T09:11:08.568Z,5.50
2018-10-02T09:13:37.230Z,6.83
2018-10-02T09:16:05.632Z,6.13
2018-10-02T09:18:33.955Z,10.47
2018-10-02T09:21:02.177Z,6.30
2018-10-02T09:23:30.618Z,5.77
2018-10-02T09:25:58.894Z,7.00
2018-10-02T09:28:28.075Z,5.70
2018-10-02T09:31:01.994Z,8.07
2018-10-02T09:33:35.760Z,8.53
2018-10-02T09:36:09.336Z,5.70
2018-10-02T09:38:46.227Z,7.37
2018-10-02T09:41:19.967Z,4.53
2018-10-02T09:43:50.515Z,6.47
2018-10-02T09:46:18.937Z,5.77
2018-10-02T09:48:47.241Z,5.20
2018-10-02T09:51:15.782Z,5.80
2018-10-02T09:53:44.062Z,6.30
2018-10-02T09:56:12.343Z,6.73
2018-10-02T09:58:40.706Z,6.40
2018-10-02T10:01:14.415Z,5.60
2018-10-02T10:03:42.706Z,6.43
2018-10-02T10:06:11.054Z,6.80
2018-10-02T10:08:39.398Z,6.83
2018-10-02T10:11:08.718Z,6.63
2018-10-02T10:13:37.024Z,7.93
2018-10-02T10:16:05.403Z,7.73
2018-10-02T10:18:34.306Z,8.30
2018-10-02T10:21:02.629Z,10.90
2018-10-02T10:23:33.020Z,12.13
2018-10-02T10:26:01.286Z,8.60
2018-10-02T10:28:29.749Z,11.53
2018-10-02T10:30:57.994Z,7.40
2018-10-02T10:33:26.350Z,8.63
2018-10-02T10:35:54.534Z,11.20
2018-10-02T10:38:22.871Z,7.10
2018-10-02T10:40:51.209Z,7.97
2018-10-02T10:43:19.479Z,12.87
2018-10-02T10:45:48.854Z,8.20
2018-10-02T10:48:17.134Z,7.67
2018-10-02T10:50:45.433Z,10.87
2018-10-02T10:53:13.710Z,7.80
2018-10-02T10:55:42.109Z,6.60
2018-10-02T10:58:10.441Z,5.33
2018-10-02T11:00:38.736Z,5.97
2018-10-02T11:03:07.026Z,5.83
2018-10-02T11:05:35.304Z,6.20
2018-10-02T11:08:03.650Z,7.10
2018-10-02T11:10:33.023Z,5.53
2018-10-02T11:13:01.316Z,6.43
2018-10-02T11:15:31.278Z,6.40
2018-10-02T11:18:01.934Z,5.80
2018-10-02T11:20:32.125Z,6.50
2018-10-02T11:23:00.509Z,6.30
2018-10-02T11:25:29.096Z,5.50
2018-10-02T11:27:58.666Z,5.80
2018-10-02T11:30:26.968Z,5.50
2018-10-02T11:32:55.274Z,5.53
2018-10-02T11:35:23.670Z,5.80
2018-10-02T11:37:59.757Z,7.23
2018-10-02T11:40:28.015Z,7.70
2018-10-02T11:42:56.287Z,7.00
2018-10-02T11:45:24.538Z,6.10
2018-10-02T11:47:52.766Z,7.97
2018-10-02T11:50:20.985Z,7.13
2018-10-02T11:52:49.248Z,7.70
2018-10-02T11:55:17.596Z,7.10
2018-10-02T11:57:45.900Z,6.93
2018-10-02T12:00:14.186Z,7.23
2018-10-02T12:02:42.499Z,7.63
2018-10-02T12:05:10.918Z,6.87
2018-10-02T12:07:39.157Z,7.70
2018-10-02T12:10:07.402Z,7.27
2018-10-02T12:12:35.706Z,7.50
2018-10-02T12:15:04.121Z,8.50
2018-10-02T12:17:32.386Z,7.37
2018-10-02T12:20:00.772Z,8.13
2018-10-02T12:22:29.017Z,9.33
2018-10-02T12:24:57.269Z,10.10
2018-10-02T12:27:25.517Z,9.03
2018-10-02T12:29:53.766Z,10.17
2018-10-02T12:32:22.030Z,10.83
2018-10-02T12:34:50.273Z,11.60
2018-10-02T12:37:18.775Z,12.40
2018-10-02T12:39:47.139Z,11.53
2018-10-02T12:42:15.397Z,11.77
2018-10-02T12:44:43.750Z,13.00
2018-10-02T12:47:12.036Z,11.87
2018-10-02T12:49:40.512Z,11.37
2018-10-02T12:52:08.891Z,12.60
2018-10-02T12:54:37.321Z,11.63
2018-10-02T12:57:05.604Z,11.07
2018-10-02T12:59:33.923Z,10.37
2018-10-02T13:02:02.186Z,10.33
2018-10-02T13:04:30.534Z,10.23
2018-10-02T13:06:58.785Z,10.53
2018-10-02T13:09:27.050Z,10.87
2018-10-02T13:11:55.295Z,12.20
2018-10-02T13:14:23.569Z,12.43
2018-10-02T13:16:51.845Z,12.10
2018-10-02T13:19:20.112Z,13.97
2018-10-02T13:21:48.351Z,18.07
2018-10-02T13:24:16.623Z,17.23
2018-10-02T13:26:44.865Z,18.30
2018-10-02T13:29:13.130Z,18.07
2018-10-02T13:31:41.451Z,20.10
2018-10-02T13:34:09.817Z,20.70
2018-10-02T13:36:38.117Z,21.23
2018-10-02T13:39:07.551Z,22.23
2018-10-02T13:41:35.941Z,22.80
2018-10-02T13:44:05.521Z,24.87
2018-10-02T13:46:33.951Z,24.07
2018-10-02T13:49:02.262Z,26.33
2018-10-02T13:51:30.599Z,25.10
2018-10-02T13:53:58.916Z,27.17
2018-10-02T13:56:27.246Z,29.37
2018-10-02T13:58:56.654Z,28.37
2018-10-02T14:01:25.387Z,28.70
2018-10-02T14:03:54.926Z,29.63
2018-10-02T14:06:25.481Z,32.83
2018-10-02T14:08:54.759Z,35.40
2018-10-02T14:11:23.886Z,35.53
2018-10-02T14:13:53.238Z,35.80
2018-10-02T14:16:23.487Z,36.40
2018-10-02T14:18:53.605Z,39.87
2018-10-02T14:21:25.284Z,37.97
2018-10-02T14:23:56.025Z,40.50
2018-10-02T14:26:25.402Z,41.83
2018-10-02T14:28:56.072Z,43.10
2018-10-02T14:31:24.862Z,43.10
2018-10-02T14:33:57.393Z,45.17
2018-10-02T14:36:26.787Z,43.70
2018-10-02T14:38:55.971Z,42.23
2018-10-02T14:41:24.703Z,43.87
2018-10-02T14:43:55.587Z,46.37
2018-10-02T14:46:24.426Z,44.67
2018-10-02T14:48:52.859Z,43.73
2018-10-02T14:51:22.222Z,42.67
2018-10-02T14:53:52.827Z,43.83
2018-10-02T14:56:26.507Z,45.73
2018-10-02T14:58:55.030Z,42.17
2018-10-02T15:01:23.906Z,41.93
2018-10-02T15:03:59.777Z,40.73
2018-10-02T15:06:31.689Z,41.47
2018-10-02T15:09:00.981Z,41.77
2018-10-02T15:11:29.924Z,42.93
2018-10-02T15:13:59.555Z,39.77
2018-10-02T15:16:28.830Z,40.57
2018-10-02T15:19:00.591Z,38.83
2018-10-02T15:21:29.217Z,40.73
2018-10-02T15:23:59.227Z,41.60
2018-10-02T15:26:28.710Z,36.30
2018-10-02T15:29:00.481Z,39.33
2018-10-02T15:31:29.520Z,38.80
2018-10-02T15:34:00.075Z,37.33
2018-10-02T15:36:29.593Z,36.97
2018-10-02T15:38:59.504Z,38.63
2018-10-02T15:41:27.893Z,39.70
2018-10-02T15:43:56.651Z,38.83
2018-10-02T15:46:26.189Z,39.43
2018-10-02T15:48:55.585Z,38.80
2018-10-02T15:51:25.157Z,36.57
2018-10-02T15:53:55.961Z,36.20
2018-10-02T15:56:27.336Z,36.70
2018-10-02T15:58:56.266Z,41.67
2018-10-02T16:01:25.578Z,42.00
2018-10-02T16:03:55.604Z,39.13
2018-10-02T16:06:27.216Z,34.97
2018-10-02T16:08:55.469Z,36.57
2018-10-02T16:11:24.264Z,33.90
2018-10-02T16:13:53.496Z,29.23
2018-10-02T16:16:22.590Z,28.63
2018-10-02T16:18:51.493Z,27.83
2018-10-02T16:21:20.323Z,28.47
2018-10-02T16:23:49.125Z,24.87
2018-10-02T16:26:19.182Z,25.77
2018-10-02T16:28:48.725Z,24.73
2018-10-02T16:31:18.854Z,23.30
2018-10-02T16:33:48.444Z,23.03
2018-10-02T16:36:17.057Z,21.87
2018-10-02T16:38:46.182Z,23.50
2018-10-02T16:41:15.261Z,23.63
2018-10-02T16:43:44.646Z,25.07
2018-10-02T16:46:14.407Z,22.97
2018-10-02T16:48:43.574Z,23.00
2018-10-02T16:51:11.991Z,21.67
2018-10-02T16:53:40.253Z,20.23
2018-10-02T16:56:08.848Z,19.93
2018-10-02T16:58:37.760Z,19.43
2018-10-02T17:01:06.009Z,18.53
2018-10-02T17:03:35.513Z,16.97
2018-10-02T17:06:04.323Z,19.50
2018-10-02T17:08:32.866Z,20.70
2018-10-02T17:11:01.174Z,21.03
2018-10-02T17:13:29.390Z,21.03
2018-10-02T17:15:57.644Z,20.73
2018-10-02T17:18:26.021Z,20.43
2018-10-02T17:20:56.356Z,19.47
2018-10-02T17:23:26.333Z,17.87
2018-10-02T17:25:55.829Z,17.57
2018-10-02T17:28:24.803Z,17.23
2018-10-02T17:30:54.998Z,17.63
2018-10-02T17:33:23.468Z,16.83
2018-10-02T17:35:51.829Z,18.40
2018-10-02T17:38:20.811Z,19.60
2018-10-02T17:40:49.173Z,17.93
2018-10-02T17:43:18.645Z,21.13
2018-10-02T17:45:52.868Z,20.57
2018-10-02T17:48:24.182Z,17.87
2018-10-02T17:50:53.047Z,17.63
2018-10-02T17:53:21.941Z,15.63
2018-10-02T17:55:51.570Z,12.77
2018-10-02T17:58:20.892Z,11.53
2018-10-02T18:00:49.124Z,7.83
2018-10-02T18:03:18.398Z,6.90
2018-10-02T18:05:46.659Z,5.50
2018-10-02T18:08:14.840Z,5.33
2018-10-02T18:10:43.032Z,4.13
2018-10-02T18:13:11.694Z,3.67
2018-10-02T18:15:40.647Z,3.67
2018-10-02T18:18:09.766Z,4.80
2018-10-02T18:20:38.137Z,4.70
2018-10-02T18:23:07.357Z,4.90
2018-10-02T18:25:35.677Z,3.57
2018-10-02T18:28:04.070Z,4.03
2018-10-02T18:30:33.671Z,3.60
2018-10-02T18:33:02.495Z,3.53
2018-10-02T18:35:31.359Z,2.90
2018-10-02T18:37:59.560Z,2.90
2018-10-02T18:40:28.165Z,4.30
2018-10-02T18:42:56.467Z,3.42
2018-10-02T18:45:24.797Z,3.40
2018-10-02T18:47:53.685Z,3.00
2018-10-02T18:50:26.178Z,3.27
2018-10-02T18:52:58.079Z,3.90
2018-10-02T18:55:26.819Z,3.07
2018-10-02T18:57:56.783Z,3.13
2018-10-02T19:00:25.318Z,2.83
2018-10-02T19:02:53.598Z,3.97
2018-10-02T19:05:23.229Z,3.60
2018-10-02T19:07:51.540Z,4.43
2018-10-02T19:10:22.238Z,3.92
2018-10-02T19:12:52.718Z,3.80
2018-10-02T19:15:24.936Z,3.67
2018-10-02T19:17:53.918Z,3.67
2018-10-02T19:20:28.197Z,3.13
2018-10-02T19:22:56.590Z,3.23
2018-10-02T19:25:30.854Z,3.17
2018-10-02T19:27:59.661Z,4.13
2018-10-02T19:30:35.867Z,4.13
2018-10-02T19:33:06.248Z,4.23
2018-10-02T19:35:36.865Z,4.07
2018-10-02T19:38:11.075Z,3.03
2018-10-02T19:40:40.032Z,3.80
2018-10-02T19:43:10.337Z,4.50
2018-10-02T19:45:44.126Z,3.67
2018-10-02T19:48:13.595Z,4.57
2018-10-02T19:50:42.427Z,3.97
2018-10-02T19:53:10.880Z,4.00
2018-10-02T19:55:39.938Z,4.23
2018-10-02T19:58:11.561Z,3.00
2018-10-02T20:00:40.564Z,3.40
2018-10-02T20:03:10.444Z,3.27
2018-10-02T20:05:39.360Z,4.03
2018-10-02T20:08:07.905Z,3.30
2018-10-02T20:10:36.470Z,3.90
2018-10-02T20:13:06.050Z,3.57
2018-10-02T20:15:34.530Z,3.40
2018-10-02T20:18:03.815Z,3.47
2018-10-02T20:20:32.273Z,3.77
2018-10-02T20:23:05.752Z,3.47
2018-10-02T20:25:35.639Z,3.13
2018-10-02T20:28:05.185Z,3.43
2018-10-02T20:30:36.503Z,3.57
2018-10-02T20:33:05.041Z,3.43
2018-10-02T20:35:33.591Z,4.03
2018-10-02T20:38:01.932Z,3.57
2018-10-02T20:40:35.041Z,3.80
2018-10-02T20:43:06.602Z,3.63
2018-10-02T20:45:35.162Z,4.13
2018-10-02T20:48:05.486Z,3.70
2018-10-02T20:50:39.491Z,3.13
2018-10-02T20:53:07.895Z,4.03
2018-10-02T20:55:36.513Z,3.87
2018-10-02T20:58:05.593Z,3.80
2018-10-02T21:00:34.990Z,4.47
2018-10-02T21:03:03.763Z,4.10
2018-10-02T21:05:34.762Z,3.90
2018-10-02T21:08:04.192Z,4.10
2018-10-02T21:10:33.542Z,3.50
2018-10-02T21:13:02.149Z,3.60
2018-10-02T21:15:30.882Z,3.73
2018-10-02T21:17:59.295Z,3.73
2018-10-02T21:20:28.535Z,3.53
2018-10-02T21:22:58.454Z,3.80
2018-10-02T21:25:27.056Z,5.50
2018-10-02T21:27:56.394Z,3.77
2018-10-02T21:30:26.299Z,3.60
2018-10-02T21:32:55.046Z,3.50
2018-10-02T21:35:29.078Z,4.30
2018-10-02T21:38:01.450Z,3.73
2018-10-02T21:40:33.516Z,3.70
2018-10-02T21:43:02.128Z,4.37
2018-10-02T21:45:30.566Z,4.77
2018-10-02T21:48:04.407Z,4.17
2018-10-02T21:50:32.636Z,4.53
2018-10-02T21:53:01.209Z,3.83
2018-10-02T21:55:31.187Z,4.20
2018-10-02T21:58:00.455Z,4.23
2018-10-02T22:00:30.437Z,3.67
2018-10-02T22:02:58.649Z,4.37
2018-10-02T22:05:27.002Z,3.93
2018-10-02T22:07:55.337Z,3.90
2018-10-02T22:10:23.593Z,4.00
2018-10-02T22:12:52.001Z,4.30
2018-10-02T22:15:22.005Z,3.77
2018-10-02T22:17:51.001Z,4.67
2018-10-02T22:20:20.544Z,4.57
2018-10-02T22:22:49.185Z,3.47
2018-10-02T22:25:17.843Z,4.17
2018-10-02T22:27:46.625Z,3.73
2018-10-02T22:30:17.424Z,4.40
2018-10-02T22:32:45.805Z,3.53
2018-10-02T22:35:14.613Z,3.60
2018-10-02T22:37:43.565Z,4.43
2018-10-02T22:40:13.130Z,4.63
2018-10-02T22:42:41.236Z,4.10
2018-10-02T22:45:09.449Z,4.17
2018-10-02T22:47:39.106Z,4.00
2018-10-02T22:50:07.307Z,4.83
2018-10-02T22:52:35.481Z,3.70
2018-10-02T22:55:04.038Z,4.17
2018-10-02T22:57:32.457Z,3.57
2018-10-02T23:00:00.653Z,4.30
2018-10-02T23:02:29.147Z,3.80
2018-10-02T23:04:57.354Z,4.13
2018-10-02T23:07:25.617Z,3.80
2018-10-02T23:09:53.813Z,3.97
2018-10-02T23:12:21.992Z,3.80
2018-10-02T23:14:50.421Z,3.20
2018-10-02T23:17:18.664Z,3.23
2018-10-02T23:19:46.894Z,4.33
2018-10-02T23:22:15.211Z,3.60
2018-10-02T23:24:44.345Z,3.63
2018-10-02T23:27:12.602Z,4.63
2018-10-02T23:29:41.546Z,4.13
2018-10-02T23:32:09.869Z,4.27
2018-10-02T23:34:38.126Z,3.87
2018-10-02T23:37:06.425Z,4.00
2018-10-02T23:39:34.701Z,4.47
2018-10-02T23:42:02.968Z,3.77
2018-10-02T23:44:31.225Z,4.23
2018-10-02T23:46:59.490Z,4.03
2018-10-02T23:49:28.360Z,3.97
2018-10-02T23:51:56.957Z,3.67
2018-10-02T23:54:25.196Z,4.03
2018-10-02T23:56:54.241Z,3.90
2018-10-02T23:59:22.467Z,4.07
